createdAt,value
2023-02-28T00:00:39.105Z,5.97
2023-02-28T00:03:06.208Z,5.10
2023-02-28T00:05:33.213Z,4.72
2023-02-28T00:07:59.922Z,5.30
2023-02-28T00:10:29.740Z,4.82
2023-02-28T00:13:00.890Z,4.40
2023-02-28T00:15:27.646Z,4.10
2023-02-28T00:17:54.577Z,4.05
2023-02-28T00:20:21.847Z,4.50
2023-02-28T00:22:51.330Z,3.90
2023-02-28T00:25:20.908Z,4.53
2023-02-28T00:27:47.729Z,4.25
2023-02-28T00:30:17.967Z,4.13
2023-02-28T00:32:45.269Z,4.18
2023-02-28T00:35:12.879Z,3.72
2023-02-28T00:37:39.644Z,3.92
2023-02-28T00:40:07.532Z,3.90
2023-02-28T00:42:35.933Z,3.60
2023-02-28T00:45:04.847Z,3.97
2023-02-28T00:47:32.369Z,4.20
2023-02-28T00:49:59.268Z,4.18
2023-02-28T00:52:26.278Z,3.92
2023-02-28T00:54:52.948Z,3.80
2023-02-28T00:57:19.671Z,3.70
2023-02-28T00:59:46.412Z,4.65
2023-02-28T01:02:13.136Z,3.80
2023-02-28T01:04:39.894Z,3.63
2023-02-28T01:07:06.613Z,3.92
2023-02-28T01:09:33.300Z,3.47
2023-02-28T01:12:00.198Z,3.70
2023-02-28T01:14:27.012Z,3.95
2023-02-28T01:16:53.670Z,4.40
2023-02-28T01:19:20.491Z,3.95
2023-02-28T01:21:47.145Z,4.13
2023-02-28T01:24:14.840Z,4.20
2023-02-28T01:26:41.558Z,4.00
2023-02-28T01:29:08.348Z,4.30
2023-02-28T01:31:35.110Z,3.95
2023-02-28T01:34:02.526Z,4.25
2023-02-28T01:36:30.753Z,4.63
2023-02-28T01:38:57.832Z,4.25
2023-02-28T01:41:32.654Z,4.38
2023-02-28T01:44:04.385Z,4.50
2023-02-28T01:46:32.815Z,4.90
2023-02-28T01:48:59.575Z,4.03
2023-02-28T01:51:30.510Z,4.35
2023-02-28T01:54:03.094Z,4.75
2023-02-28T01:56:33.853Z,4.57
2023-02-28T01:59:00.739Z,4.75
2023-02-28T02:01:29.134Z,4.82
2023-02-28T02:03:59.985Z,4.85
2023-02-28T02:06:31.469Z,4.80
2023-02-28T02:08:58.147Z,5.15
2023-02-28T02:11:26.932Z,5.15
2023-02-28T02:14:18.488Z,5.13
2023-02-28T02:17:06.562Z,5.00
2023-02-28T02:19:51.709Z,5.10
2023-02-28T02:22:36.948Z,4.93
2023-02-28T02:25:18.456Z,5.05
2023-02-28T02:27:58.303Z,5.57
2023-02-28T02:30:45.464Z,5.03
2023-02-28T02:33:27.034Z,5.07
2023-02-28T02:36:18.115Z,4.28
2023-02-28T02:39:03.653Z,4.55
2023-02-28T02:41:49.424Z,4.63
2023-02-28T02:44:25.146Z,4.38
2023-02-28T02:46:59.352Z,4.63
2023-02-28T02:49:32.314Z,5.68
2023-02-28T02:52:04.405Z,4.55
2023-02-28T02:54:38.456Z,3.85
2023-02-28T02:57:10.624Z,4.10
2023-02-28T02:59:40.880Z,5.38
2023-02-28T03:02:12.281Z,4.80
2023-02-28T03:04:52.490Z,5.10
2023-02-28T03:07:19.156Z,4.38
2023-02-28T03:09:57.101Z,4.35
2023-02-28T03:12:32.610Z,3.95
2023-02-28T03:15:11.572Z,4.05
2023-02-28T03:18:00.897Z,4.28
2023-02-28T03:23:14.349Z,6.90
2023-02-28T03:26:12.497Z,6.03
2023-02-28T03:28:50.449Z,5.20
2023-02-28T03:31:49.539Z,6.97
2023-02-28T03:34:38.669Z,5.40
2023-02-28T03:37:18.173Z,4.63
2023-02-28T03:39:59.216Z,4.75
2023-02-28T03:42:30.688Z,4.20
2023-02-28T03:45:01.731Z,4.40
2023-02-28T03:47:44.396Z,4.47
2023-02-28T03:50:17.922Z,6.10
2023-02-28T03:52:51.927Z,5.50
2023-02-28T03:55:20.203Z,5.68
2023-02-28T03:58:11.201Z,5.53
2023-02-28T04:01:09.302Z,4.68
2023-02-28T04:03:40.399Z,6.03
2023-02-28T04:06:13.770Z,5.65
2023-02-28T04:08:40.865Z,3.75
2023-02-28T04:11:38.006Z,3.08
2023-02-28T04:14:05.972Z,2.90
2023-02-28T04:16:35.858Z,3.00
2023-02-28T04:19:07.181Z,3.10
2023-02-28T04:21:40.129Z,2.80
2023-02-28T04:24:08.313Z,2.90
2023-02-28T04:26:37.453Z,2.50
2023-02-28T04:29:06.312Z,3.05
2023-02-28T04:31:33.437Z,2.80
2023-02-28T04:34:00.974Z,2.60
2023-02-28T04:36:28.416Z,2.40
2023-02-28T04:38:55.731Z,2.60
2023-02-28T04:41:23.812Z,3.03
2023-02-28T04:43:52.741Z,2.50
2023-02-28T04:46:19.923Z,2.50
2023-02-28T04:48:46.758Z,3.17
2023-02-28T04:51:16.100Z,3.08
2023-02-28T04:56:13.625Z,2.90
2023-02-28T04:58:40.773Z,2.95
2023-02-28T05:01:17.774Z,2.80
2023-02-28T05:03:44.768Z,2.38
2023-02-28T05:06:13.208Z,2.60
2023-02-28T05:08:39.941Z,2.70
2023-02-28T05:11:13.364Z,2.90
2023-02-28T05:13:39.996Z,2.65
2023-02-28T05:16:07.059Z,3.25
2023-02-28T05:18:33.759Z,2.72
2023-02-28T05:21:03.316Z,2.85
2023-02-28T05:23:30.599Z,2.85
2023-02-28T05:25:57.702Z,2.83
2023-02-28T05:28:24.797Z,2.55
2023-02-28T05:30:51.452Z,3.00
2023-02-28T05:33:18.139Z,2.85
2023-02-28T05:35:44.869Z,3.00
2023-02-28T05:38:11.883Z,3.10
2023-02-28T05:40:40.693Z,3.15
2023-02-28T05:43:09.966Z,2.67
2023-02-28T05:48:03.365Z,2.75
2023-02-28T05:50:30.021Z,2.60
2023-02-28T05:52:56.709Z,3.30
2023-02-28T05:55:23.360Z,3.33
2023-02-28T05:57:50.027Z,3.40
2023-02-28T06:00:18.857Z,2.85
2023-02-28T06:02:45.639Z,3.10
2023-02-28T06:05:17.704Z,4.05
2023-02-28T06:07:45.306Z,3.63
2023-02-28T06:10:12.671Z,3.67
2023-02-28T06:12:39.772Z,3.17
2023-02-28T06:15:06.851Z,3.88
2023-02-28T06:17:33.537Z,3.22
2023-02-28T06:20:00.403Z,3.33
2023-02-28T06:22:27.190Z,3.40
2023-02-28T06:24:53.996Z,3.38
2023-02-28T06:27:21.365Z,3.85
2023-02-28T06:29:48.212Z,3.40
2023-02-28T06:32:14.962Z,3.50
2023-02-28T06:34:41.687Z,3.03
2023-02-28T06:37:08.436Z,3.60
2023-02-28T06:39:35.556Z,3.45
2023-02-28T06:42:02.315Z,3.75
2023-02-28T06:44:36.478Z,3.88
2023-02-28T06:47:05.009Z,3.17
2023-02-28T06:49:33.600Z,4.13
2023-02-28T06:52:00.389Z,3.60
2023-02-28T06:54:27.196Z,3.45
2023-02-28T06:56:55.331Z,3.05
2023-02-28T06:59:22.275Z,3.53
2023-02-28T07:01:48.966Z,3.60
2023-02-28T07:04:15.860Z,3.58
2023-02-28T07:06:42.597Z,3.15
2023-02-28T07:09:09.239Z,3.10
2023-02-28T07:11:36.133Z,3.45
2023-02-28T07:14:02.919Z,3.47
2023-02-28T07:16:29.574Z,4.10
2023-02-28T07:18:56.487Z,3.53
2023-02-28T07:21:23.526Z,3.38
2023-02-28T07:23:51.001Z,3.30
2023-02-28T07:26:19.499Z,4.13
2023-02-28T07:28:48.491Z,6.43
2023-02-28T07:31:16.787Z,3.75
2023-02-28T07:33:44.038Z,4.05
2023-02-28T07:36:16.125Z,3.40
2023-02-28T07:38:49.179Z,3.80
2023-02-28T07:41:17.859Z,3.50
2023-02-28T07:43:45.698Z,4.00
2023-02-28T07:46:16.184Z,3.97
2023-02-28T07:48:43.503Z,3.75
2023-02-28T07:51:10.239Z,4.20
2023-02-28T07:53:36.895Z,3.97
2023-02-28T07:56:04.098Z,4.05
2023-02-28T07:58:32.019Z,4.38
2023-02-28T08:00:58.998Z,4.40
2023-02-28T08:03:26.107Z,3.70
2023-02-28T08:05:53.801Z,4.00
2023-02-28T08:08:20.649Z,4.38
2023-02-28T08:10:47.377Z,4.35
2023-02-28T08:13:14.024Z,4.82
2023-02-28T08:15:43.908Z,4.55
2023-02-28T08:18:10.958Z,4.63
2023-02-28T08:20:37.796Z,5.18
2023-02-28T08:23:04.497Z,4.80
2023-02-28T08:25:31.104Z,5.35
2023-02-28T08:27:57.737Z,4.90
2023-02-28T08:30:24.334Z,4.90
2023-02-28T08:32:51.004Z,4.88
2023-02-28T08:35:17.646Z,4.80
2023-02-28T08:37:44.358Z,4.72
2023-02-28T08:40:11.925Z,4.43
2023-02-28T08:42:38.584Z,5.03
2023-02-28T08:45:05.703Z,5.28
2023-02-28T08:47:32.593Z,4.47
2023-02-28T08:49:59.179Z,4.43
2023-02-28T08:52:25.926Z,4.47
2023-02-28T08:54:52.641Z,4.38
2023-02-28T08:57:19.360Z,4.60
2023-02-28T08:59:46.052Z,5.25
2023-02-28T09:02:15.382Z,4.60
2023-02-28T09:07:09.260Z,4.65
2023-02-28T09:09:35.967Z,4.65
2023-02-28T09:12:03.205Z,4.25
2023-02-28T09:14:29.859Z,4.43
2023-02-28T09:16:56.466Z,4.15
2023-02-28T09:19:23.509Z,4.03
2023-02-28T09:21:50.205Z,4.10
2023-02-28T09:24:16.826Z,4.38
2023-02-28T09:26:56.548Z,4.20
2023-02-28T09:29:30.557Z,4.35
2023-02-28T09:31:59.662Z,4.43
2023-02-28T09:34:27.680Z,3.47
2023-02-28T09:36:56.062Z,4.32
2023-02-28T09:39:23.930Z,4.60
2023-02-28T09:41:53.402Z,4.22
2023-02-28T09:44:33.632Z,4.50
2023-02-28T09:47:26.488Z,4.25
2023-02-28T09:49:53.605Z,4.05
2023-02-28T09:52:25.579Z,4.60
2023-02-28T09:54:53.231Z,3.90
2023-02-28T09:57:25.533Z,4.22
2023-02-28T10:00:18.926Z,4.05
2023-02-28T10:03:02.456Z,4.40
2023-02-28T10:05:34.403Z,3.90
2023-02-28T10:08:11.393Z,3.80
2023-02-28T10:10:44.445Z,4.30
2023-02-28T10:13:17.617Z,4.07
2023-02-28T10:15:47.520Z,4.35
2023-02-28T10:18:21.039Z,5.57
2023-02-28T10:20:50.289Z,4.28
2023-02-28T10:23:46.076Z,3.95
2023-02-28T10:26:16.731Z,4.40
2023-02-28T10:28:44.355Z,4.68
2023-02-28T10:31:19.784Z,4.65
2023-02-28T10:33:46.903Z,4.32
2023-02-28T10:36:20.731Z,4.10
2023-02-28T10:38:48.341Z,3.95
2023-02-28T10:41:28.725Z,3.95
2023-02-28T10:44:15.010Z,4.47
2023-02-28T10:46:43.525Z,4.32
2023-02-28T10:49:26.961Z,3.57
2023-02-28T10:51:58.008Z,4.32
2023-02-28T10:54:30.707Z,4.03
2023-02-28T10:57:31.776Z,4.13
2023-02-28T11:00:15.835Z,3.97
2023-02-28T11:02:45.182Z,3.65
2023-02-28T11:08:13.019Z,3.92
2023-02-28T11:10:40.115Z,4.15
2023-02-28T11:13:07.135Z,3.97
2023-02-28T11:15:36.138Z,4.00
2023-02-28T11:18:23.930Z,4.90
2023-02-28T11:20:53.347Z,5.25
2023-02-28T11:25:52.155Z,4.32
2023-02-28T11:28:38.042Z,4.50
2023-02-28T11:31:20.501Z,4.35
2023-02-28T11:33:56.741Z,4.45
2023-02-28T11:36:34.235Z,4.03
2023-02-28T11:39:06.167Z,4.57
2023-02-28T11:42:27.689Z,4.18
2023-02-28T11:45:22.647Z,4.40
2023-02-28T11:48:10.743Z,4.05
2023-02-28T11:50:40.381Z,4.38
2023-02-28T11:53:20.273Z,4.40
2023-02-28T11:55:50.014Z,4.88
2023-02-28T11:58:40.858Z,4.72
2023-02-28T12:01:23.009Z,4.60
2023-02-28T12:04:05.517Z,4.50
2023-02-28T12:06:46.357Z,4.70
2023-02-28T12:09:43.456Z,4.25
2023-02-28T12:12:37.994Z,4.25
2023-02-28T12:15:34.027Z,4.55
2023-02-28T12:18:19.091Z,4.28
2023-02-28T12:21:04.485Z,4.78
2023-02-28T12:23:40.056Z,4.68
2023-02-28T12:26:32.419Z,5.18
2023-02-28T12:29:12.475Z,4.90
2023-02-28T12:31:48.857Z,5.18
2023-02-28T12:34:22.215Z,5.15
2023-02-28T12:36:52.882Z,5.30
2023-02-28T12:39:49.417Z,5.40
2023-02-28T12:42:26.023Z,4.68
2023-02-28T12:44:59.228Z,4.80
2023-02-28T12:47:26.047Z,5.30
2023-02-28T12:50:09.041Z,5.05
2023-02-28T12:52:55.940Z,4.88
2023-02-28T12:56:10.333Z,5.20
2023-02-28T12:58:39.231Z,4.88
2023-02-28T13:01:30.482Z,4.82
2023-02-28T13:04:07.729Z,4.90
2023-02-28T13:07:01.787Z,4.38
2023-02-28T13:09:30.547Z,4.78
2023-02-28T13:11:58.829Z,4.40
2023-02-28T13:14:38.327Z,4.50
2023-02-28T13:17:14.123Z,4.97
2023-02-28T13:19:58.991Z,5.25
2023-02-28T13:22:50.267Z,5.18
2023-02-28T13:25:22.939Z,5.03
2023-02-28T13:28:02.067Z,4.78
2023-02-28T13:30:57.104Z,4.32
2023-02-28T13:33:35.198Z,4.45
2023-02-28T13:36:20.322Z,5.07
2023-02-28T13:39:00.972Z,5.25
2023-02-28T13:41:31.119Z,5.32
2023-02-28T13:44:30.494Z,4.68
2023-02-28T13:46:57.038Z,4.72
2023-02-28T13:49:26.367Z,5.35
2023-02-28T13:52:08.042Z,5.38
2023-02-28T13:54:37.980Z,5.40
2023-02-28T13:57:29.405Z,5.18
2023-02-28T14:00:24.161Z,5.45
2023-02-28T14:02:59.901Z,6.30
2023-02-28T14:05:28.211Z,5.70
2023-02-28T14:07:58.096Z,4.97
2023-02-28T14:10:31.884Z,5.60
2023-02-28T14:13:02.295Z,5.25
2023-02-28T14:15:49.365Z,5.85
2023-02-28T14:18:19.159Z,6.07
2023-02-28T14:20:48.766Z,6.45
2023-02-28T14:23:47.041Z,6.13
2023-02-28T14:26:13.769Z,5.40
2023-02-28T14:28:46.614Z,5.10
2023-02-28T14:31:38.095Z,6.00
2023-02-28T14:34:04.686Z,5.30
2023-02-28T14:36:37.628Z,5.18
2023-02-28T14:39:16.910Z,5.40
2023-02-28T14:41:45.410Z,5.78
2023-02-28T14:44:18.547Z,6.00
2023-02-28T14:46:46.780Z,5.70
2023-02-28T14:49:25.796Z,5.93
2023-02-28T14:52:13.923Z,5.60
2023-02-28T14:54:41.237Z,6.22
2023-02-28T14:57:25.567Z,6.43
2023-02-28T15:00:13.076Z,5.88
2023-02-28T15:02:40.936Z,5.75
2023-02-28T15:05:13.352Z,6.00
2023-02-28T15:07:42.373Z,6.32
2023-02-28T15:10:19.981Z,6.15
2023-02-28T15:12:53.808Z,6.38
2023-02-28T15:15:28.175Z,6.03
2023-02-28T15:18:06.977Z,6.00
2023-02-28T15:20:34.744Z,6.20
2023-02-28T15:23:01.732Z,5.90
2023-02-28T15:25:28.710Z,5.72
2023-02-28T15:27:58.347Z,6.10
2023-02-28T15:30:33.732Z,6.63
2023-02-28T15:33:14.443Z,6.15
2023-02-28T15:35:41.145Z,7.15
2023-02-28T15:38:27.381Z,6.05
2023-02-28T15:40:56.235Z,6.68
2023-02-28T15:43:28.920Z,7.47
2023-02-28T15:45:58.723Z,7.45
2023-02-28T15:48:30.137Z,7.93
2023-02-28T15:51:03.869Z,7.18
2023-02-28T15:53:34.610Z,6.47
2023-02-28T15:56:07.765Z,6.72
2023-02-28T15:58:37.118Z,7.80
2023-02-28T16:01:21.615Z,7.38
2023-02-28T16:03:51.926Z,7.13
2023-02-28T16:06:34.646Z,6.82
2023-02-28T16:09:01.280Z,8.68
2023-02-28T16:11:28.847Z,7.80
2023-02-28T16:13:55.837Z,8.10
2023-02-28T16:16:25.372Z,7.15
2023-02-28T16:18:53.021Z,7.93
2023-02-28T16:21:19.656Z,7.47
2023-02-28T16:23:46.324Z,7.68
2023-02-28T16:26:27.472Z,7.40
2023-02-28T16:28:54.836Z,7.70
2023-02-28T16:31:21.946Z,7.60
2023-02-28T16:33:48.876Z,8.13
2023-02-28T16:36:21.144Z,7.70
2023-02-28T16:38:48.045Z,7.97
2023-02-28T16:41:20.030Z,8.15
2023-02-28T16:43:52.333Z,7.88
2023-02-28T16:46:19.699Z,7.50
2023-02-28T16:48:47.496Z,8.05
2023-02-28T16:51:16.346Z,7.82
2023-02-28T16:53:44.256Z,7.78
2023-02-28T16:56:23.957Z,8.20
2023-02-28T16:58:51.874Z,8.10
2023-02-28T17:01:22.939Z,8.43
2023-02-28T17:03:50.756Z,8.43
2023-02-28T17:06:24.278Z,8.32
2023-02-28T17:08:52.206Z,8.07
2023-02-28T17:11:20.123Z,8.55
2023-02-28T17:13:48.440Z,7.85
2023-02-28T17:16:22.429Z,8.90
2023-02-28T17:18:49.516Z,10.02
2023-02-28T17:21:17.652Z,9.25
2023-02-28T17:23:44.868Z,8.68
2023-02-28T17:26:25.403Z,9.57
2023-02-28T17:28:55.932Z,10.35
2023-02-28T17:31:24.333Z,10.02
2023-02-28T17:33:51.334Z,8.90
2023-02-28T17:36:23.212Z,9.30
2023-02-28T17:38:50.717Z,9.43
2023-02-28T17:41:17.477Z,9.63
2023-02-28T17:43:44.221Z,8.80
2023-02-28T17:46:23.391Z,10.18
2023-02-28T17:48:54.508Z,8.77
2023-02-28T17:51:23.812Z,9.50
2023-02-28T17:56:19.971Z,8.65
2023-02-28T17:58:50.472Z,8.77
2023-02-28T18:01:19.693Z,9.75
2023-02-28T18:03:46.404Z,9.65
2023-02-28T18:06:21.259Z,9.70
2023-02-28T18:08:48.704Z,10.00
2023-02-28T18:11:22.394Z,9.88
2023-02-28T18:13:53.856Z,10.02
2023-02-28T18:16:22.513Z,10.43
2023-02-28T18:19:25.033Z,10.02
2023-02-28T18:21:54.943Z,9.82
2023-02-28T18:24:23.608Z,12.23
2023-02-28T18:26:51.878Z,11.68
2023-02-28T18:29:24.877Z,21.55
2023-02-28T18:31:53.638Z,16.50
2023-02-28T18:34:21.554Z,13.18
2023-02-28T18:36:51.009Z,29.95
2023-02-28T18:39:18.361Z,12.13
2023-02-28T18:41:45.157Z,13.20
2023-02-28T18:44:20.204Z,13.10
2023-02-28T18:46:51.480Z,13.02
2023-02-28T18:49:18.797Z,12.65
2023-02-28T18:51:46.790Z,11.93
2023-02-28T18:54:15.416Z,12.05
2023-02-28T18:56:42.752Z,12.87
2023-02-28T18:59:10.291Z,12.38
2023-02-28T19:01:37.496Z,12.25
2023-02-28T19:04:08.103Z,13.13
2023-02-28T19:06:38.297Z,13.35
2023-02-28T19:09:06.185Z,14.18
2023-02-28T19:11:33.580Z,13.05
2023-02-28T19:14:02.763Z,13.18
2023-02-28T19:16:29.983Z,12.23
2023-02-28T19:18:57.853Z,12.90
2023-02-28T19:21:26.097Z,11.98
2023-02-28T19:23:53.303Z,12.02
2023-02-28T19:26:25.313Z,13.48
2023-02-28T19:28:51.991Z,12.90
2023-02-28T19:31:25.333Z,14.90
2023-02-28T19:33:53.104Z,13.10
2023-02-28T19:36:20.983Z,12.88
2023-02-28T19:38:48.057Z,14.25
2023-02-28T19:41:17.076Z,14.93
2023-02-28T19:43:44.081Z,14.32
2023-02-28T19:46:31.546Z,13.77
2023-02-28T19:48:58.410Z,14.98
2023-02-28T19:51:25.249Z,16.83
2023-02-28T19:53:52.007Z,16.30
2023-02-28T19:56:18.776Z,14.52
2023-02-28T19:58:45.573Z,14.50
2023-02-28T20:01:15.352Z,13.65
2023-02-28T20:03:43.065Z,14.60
2023-02-28T20:06:15.967Z,14.70
2023-02-28T20:08:42.833Z,15.50
2023-02-28T20:11:12.691Z,14.43
2023-02-28T20:13:39.581Z,14.45
2023-02-28T20:16:09.709Z,15.88
2023-02-28T20:18:37.879Z,15.77
2023-02-28T20:21:25.033Z,15.07
2023-02-28T20:23:51.840Z,16.33
2023-02-28T20:26:21.495Z,14.80
2023-02-28T20:28:48.837Z,14.93
2023-02-28T20:31:22.336Z,15.57
2023-02-28T20:33:50.792Z,16.35
2023-02-28T20:36:21.357Z,14.57
2023-02-28T20:38:48.675Z,15.85
2023-02-28T20:41:16.197Z,15.52
2023-02-28T20:43:43.087Z,13.05
2023-02-28T20:46:10.495Z,17.20
2023-02-28T20:48:37.830Z,15.35
2023-02-28T20:51:05.697Z,15.82
2023-02-28T20:53:34.665Z,16.70
2023-02-28T20:56:09.019Z,16.27
2023-02-28T20:58:38.276Z,15.57
2023-02-28T21:01:05.030Z,15.85
2023-02-28T21:03:31.862Z,16.25
2023-02-28T21:06:03.308Z,16.27
2023-02-28T21:08:30.173Z,14.85
2023-02-28T21:10:56.989Z,15.05
2023-02-28T21:13:24.011Z,15.63
2023-02-28T21:15:50.733Z,14.63
2023-02-28T21:18:17.544Z,15.20
2023-02-28T21:20:44.914Z,15.30
2023-02-28T21:23:11.839Z,15.10
2023-02-28T21:25:38.474Z,15.38
2023-02-28T21:28:06.408Z,16.10
2023-02-28T21:30:33.401Z,15.38
2023-02-28T21:33:00.301Z,15.38
2023-02-28T21:35:26.933Z,15.20
2023-02-28T21:37:53.655Z,15.73
2023-02-28T21:40:20.255Z,15.95
2023-02-28T21:42:46.921Z,16.48
2023-02-28T21:45:13.563Z,16.85
2023-02-28T21:47:40.252Z,16.95
2023-02-28T21:50:07.572Z,16.58
2023-02-28T21:52:34.494Z,16.50
2023-02-28T21:55:01.178Z,16.33
2023-02-28T21:57:28.073Z,19.80
2023-02-28T21:59:54.903Z,18.15
2023-02-28T22:02:21.519Z,16.05
2023-02-28T22:04:48.381Z,15.57
2023-02-28T22:07:15.820Z,16.67
2023-02-28T22:09:42.510Z,15.63
2023-02-28T22:12:09.312Z,15.57
2023-02-28T22:14:35.998Z,16.45
2023-02-28T22:17:02.747Z,15.65
2023-02-28T22:19:29.511Z,14.98
2023-02-28T22:21:56.279Z,16.13
2023-02-28T22:24:24.618Z,17.30
2023-02-28T22:26:52.641Z,16.63
2023-02-28T22:29:19.591Z,17.25
2023-02-28T22:31:46.443Z,16.42
2023-02-28T22:34:13.171Z,16.83
2023-02-28T22:36:43.779Z,17.27
2023-02-28T22:39:10.754Z,19.92
2023-02-28T22:41:38.041Z,20.23
2023-02-28T22:44:05.676Z,19.80
2023-02-28T22:46:34.470Z,19.02
2023-02-28T22:49:03.710Z,18.35
2023-02-28T22:51:31.321Z,18.50
2023-02-28T22:53:58.625Z,19.38
2023-02-28T22:56:28.406Z,18.10
2023-02-28T22:58:57.250Z,17.35
2023-02-28T23:01:26.722Z,17.10
2023-02-28T23:03:53.927Z,17.83
2023-02-28T23:06:35.021Z,17.67
2023-02-28T23:09:07.020Z,20.67
2023-02-28T23:11:36.862Z,18.30
2023-02-28T23:14:03.620Z,18.20
2023-02-28T23:16:42.903Z,19.23
2023-02-28T23:21:38.887Z,19.38
2023-02-28T23:24:10.524Z,20.52
2023-02-28T23:26:43.809Z,19.40
2023-02-28T23:29:12.208Z,20.55
2023-02-28T23:31:39.025Z,20.47
2023-02-28T23:34:06.100Z,18.98
2023-02-28T23:36:33.370Z,19.33
2023-02-28T23:39:00.224Z,19.38
2023-02-28T23:41:26.992Z,20.00
2023-02-28T23:44:17.121Z,18.98
2023-02-28T23:46:45.736Z,21.30
2023-02-28T23:49:13.044Z,23.70
2023-02-28T23:51:39.803Z,23.30
2023-02-28T23:54:06.844Z,22.60
2023-02-28T23:56:34.192Z,22.42
2023-02-28T23:59:00.965Z,22.17
